createdAt,value
2023-07-11T00:01:02.918Z,98868.37
2023-07-11T00:03:39.506Z,98868.55
2023-07-11T00:06:10.366Z,98864.34
2023-07-11T00:08:38.431Z,98861.58
2023-07-11T00:11:11.892Z,98856.17
2023-07-11T00:13:40.930Z,98854.63
2023-07-11T00:16:12.291Z,98852.12
2023-07-11T00:18:40.332Z,98852.61
2023-07-11T00:21:08.619Z,98853.30
2023-07-11T00:23:37.004Z,98855.20
2023-07-11T00:26:05.740Z,98854.11
2023-07-11T00:28:34.028Z,98851.42
2023-07-11T00:31:02.150Z,98852.86
2023-07-11T00:33:30.703Z,98848.73
2023-07-11T00:35:58.573Z,98839.48
2023-07-11T00:38:27.077Z,98841.53
2023-07-11T00:40:54.851Z,98841.85
2023-07-11T00:43:23.020Z,98837.73
2023-07-11T00:46:12.500Z,98837.23
2023-07-11T00:48:49.657Z,98838.29
2023-07-11T00:51:21.794Z,98836.63
2023-07-11T00:53:50.129Z,98833.25
2023-07-11T00:56:22.503Z,98840.17
2023-07-11T00:58:51.154Z,98839.98
2023-07-11T01:01:20.211Z,98843.95
2023-07-11T01:03:49.578Z,98843.32
2023-07-11T01:06:21.427Z,98844.84
2023-07-11T01:08:51.301Z,98848.43
2023-07-11T01:11:20.596Z,98854.05
2023-07-11T01:13:48.766Z,98855.48
2023-07-11T01:16:16.892Z,98852.20
2023-07-11T01:18:44.992Z,98850.44
2023-07-11T01:21:18.330Z,98848.67
2023-07-11T01:23:48.490Z,98848.55
2023-07-11T01:26:16.979Z,98850.50
2023-07-11T01:28:47.309Z,98854.20
2023-07-11T01:31:15.239Z,98857.16
2023-07-11T01:33:43.068Z,98859.52
2023-07-11T01:36:11.086Z,98858.99
2023-07-11T01:38:38.940Z,98863.77
2023-07-11T01:41:06.656Z,98862.23
2023-07-11T01:43:34.479Z,98863.13
2023-07-11T01:46:02.258Z,98868.00
2023-07-11T01:48:30.903Z,98872.46
2023-07-11T01:50:58.562Z,98876.86
2023-07-11T01:53:26.337Z,98878.00
2023-07-11T01:55:58.727Z,98876.05
2023-07-11T01:58:27.840Z,98881.00
2023-07-11T02:00:58.212Z,98886.64
2023-07-11T02:03:26.683Z,98887.19
2023-07-11T02:05:55.573Z,98884.73
2023-07-11T02:08:23.319Z,98883.08
2023-07-11T02:10:50.983Z,98887.38
2023-07-11T02:13:18.658Z,98885.70
2023-07-11T02:15:46.670Z,98888.96
2023-07-11T02:18:14.448Z,98893.79
2023-07-11T02:20:45.701Z,98894.99
2023-07-11T02:23:14.826Z,98893.80
2023-07-11T02:25:43.665Z,98900.33
2023-07-11T02:28:11.670Z,98902.83
2023-07-11T02:30:39.708Z,98900.94
2023-07-11T02:33:07.608Z,98904.73
2023-07-11T02:35:35.532Z,98906.25
2023-07-11T02:38:03.384Z,98907.87
2023-07-11T02:40:31.148Z,98907.17
2023-07-11T02:42:58.861Z,98901.70
2023-07-11T02:45:26.763Z,98908.79
2023-07-11T02:47:54.652Z,98910.10
2023-07-11T02:50:22.347Z,98915.96
2023-07-11T02:52:50.253Z,98919.77
2023-07-11T02:55:18.149Z,98917.70
2023-07-11T02:57:45.990Z,98919.63
2023-07-11T03:00:14.504Z,98913.83
2023-07-11T03:02:42.210Z,98913.95
2023-07-11T03:05:10.516Z,98910.19
2023-07-11T03:07:38.357Z,98907.13
2023-07-11T03:10:06.919Z,98913.94
2023-07-11T03:12:34.590Z,98917.31
2023-07-11T03:15:04.632Z,98917.37
2023-07-11T03:17:33.223Z,98924.68
2023-07-11T03:20:01.346Z,98925.81
2023-07-11T03:22:29.558Z,98928.91
2023-07-11T03:24:57.312Z,98930.70
2023-07-11T03:27:25.004Z,98924.91
2023-07-11T03:29:52.671Z,98926.21
2023-07-11T03:32:20.421Z,98928.20
2023-07-11T03:34:54.184Z,98930.86
2023-07-11T03:37:26.597Z,98931.09
2023-07-11T03:39:54.708Z,98938.73
2023-07-11T03:42:22.558Z,98945.11
2023-07-11T03:44:50.339Z,98950.59
2023-07-11T03:47:18.440Z,98953.67
2023-07-11T03:49:46.104Z,98955.35
2023-07-11T03:52:13.944Z,98955.79
2023-07-11T03:54:41.662Z,98959.85
2023-07-11T03:57:09.534Z,98961.75
2023-07-11T03:59:37.233Z,98963.80
2023-07-11T04:02:05.407Z,98962.08
2023-07-11T04:04:34.273Z,98967.00
2023-07-11T04:07:03.445Z,98968.09
2023-07-11T04:09:31.155Z,98966.95
2023-07-11T04:11:58.978Z,98966.30
2023-07-11T04:14:26.667Z,98970.46
2023-07-11T04:16:54.558Z,98971.71
2023-07-11T04:19:22.618Z,98971.33
2023-07-11T04:21:50.354Z,98973.70
2023-07-11T04:24:18.038Z,98976.20
2023-07-11T04:26:46.909Z,98973.39
2023-07-11T04:29:14.630Z,98977.61
2023-07-11T04:31:42.359Z,98986.97
2023-07-11T04:34:10.048Z,98984.55
2023-07-11T04:36:37.743Z,98987.90
2023-07-11T04:39:05.620Z,98991.69
2023-07-11T04:41:33.383Z,98996.88
2023-07-11T04:44:01.057Z,98994.06
2023-07-11T04:46:28.853Z,99001.31
2023-07-11T04:48:56.670Z,99004.76
2023-07-11T04:51:24.406Z,99001.79
2023-07-11T04:53:52.124Z,98997.19
2023-07-11T04:56:19.864Z,98999.79
2023-07-11T04:58:47.541Z,99000.49
2023-07-11T05:01:18.594Z,98993.98
2023-07-11T05:03:49.954Z,98995.75
2023-07-11T05:06:18.048Z,98999.11
2023-07-11T05:08:45.753Z,99011.36
2023-07-11T05:11:16.443Z,99023.92
2023-07-11T05:13:46.330Z,99027.33
2023-07-11T05:16:17.098Z,99031.39
2023-07-11T05:18:46.385Z,99038.50
2023-07-11T05:21:16.980Z,99042.62
2023-07-11T05:23:45.124Z,99049.67
2023-07-11T05:26:14.279Z,99060.41
2023-07-11T05:28:42.006Z,99061.70
2023-07-11T05:31:10.270Z,99061.33
2023-07-11T05:33:38.209Z,99066.06
2023-07-11T05:36:22.052Z,99073.66
2023-07-11T05:38:50.794Z,99071.71
2023-07-11T05:41:20.311Z,99076.42
2023-07-11T05:43:48.677Z,99075.72
2023-07-11T05:46:16.866Z,99077.14
2023-07-11T05:48:44.778Z,99089.44
2023-07-11T05:51:15.817Z,99092.04
2023-07-11T05:53:44.578Z,99099.45
2023-07-11T05:56:12.563Z,99101.96
2023-07-11T05:58:40.988Z,99103.72
2023-07-11T06:01:08.872Z,99108.31
2023-07-11T06:03:36.721Z,99118.74
2023-07-11T06:06:06.570Z,99128.48
2023-07-11T06:08:34.633Z,99134.41
2023-07-11T06:11:04.231Z,99130.18
2023-07-11T06:13:33.692Z,99131.09
2023-07-11T06:16:05.251Z,99126.96
2023-07-11T06:18:35.841Z,99124.15
2023-07-11T06:21:04.880Z,99116.62
2023-07-11T06:23:32.934Z,99112.21
2023-07-11T06:26:00.953Z,99108.11
2023-07-11T06:28:28.946Z,99099.19
2023-07-11T06:31:00.380Z,99092.02
2023-07-11T06:33:29.195Z,99088.44
2023-07-11T06:35:57.997Z,99085.11
2023-07-11T06:38:25.808Z,99085.52
2023-07-11T06:40:55.968Z,99085.09
2023-07-11T06:43:25.356Z,99091.58
2023-07-11T06:45:55.279Z,99089.95
2023-07-11T06:48:26.780Z,99095.23
2023-07-11T06:51:05.023Z,99094.83
2023-07-11T06:53:34.477Z,99091.55
2023-07-11T06:56:03.355Z,99088.89
2023-07-11T06:58:31.651Z,99085.27
2023-07-11T07:01:11.340Z,99087.57
2023-07-11T07:03:44.431Z,99094.19
2023-07-11T07:06:14.098Z,99096.58
2023-07-11T07:08:42.030Z,99097.80
2023-07-11T07:11:10.723Z,99097.64
2023-07-11T07:13:43.702Z,99103.75
2023-07-11T07:16:16.740Z,99111.84
2023-07-11T07:18:45.404Z,99114.30
2023-07-11T07:21:13.337Z,99113.96
2023-07-11T07:23:42.127Z,99113.10
2023-07-11T07:26:09.787Z,99115.31
2023-07-11T07:28:37.498Z,99112.39
2023-07-11T07:31:07.570Z,99121.08
2023-07-11T07:33:36.497Z,99123.52
2023-07-11T07:36:06.566Z,99120.41
2023-07-11T07:38:34.973Z,99123.83
2023-07-11T07:41:08.189Z,99121.27
2023-07-11T07:43:37.490Z,99124.15
2023-07-11T07:46:06.249Z,99124.40
2023-07-11T07:48:34.549Z,99124.09
2023-07-11T07:51:09.053Z,99121.98
2023-07-11T07:53:37.093Z,99123.88
2023-07-11T07:56:06.929Z,99128.41
2023-07-11T08:01:07.432Z,99131.40
2023-07-11T08:03:37.366Z,99126.37
2023-07-11T08:06:15.313Z,99128.98
2023-07-11T08:08:48.941Z,99133.27
2023-07-11T08:11:18.956Z,99131.84
2023-07-11T08:18:48.515Z,99140.17
2023-07-11T08:21:16.183Z,99147.65
2023-07-11T08:23:43.858Z,99144.79
2023-07-11T08:26:12.007Z,99144.03
2023-07-11T08:28:42.849Z,99152.56
2023-07-11T08:31:11.379Z,99151.61
2023-07-11T08:33:39.568Z,99146.05
2023-07-11T08:36:07.770Z,99149.66
2023-07-11T08:38:35.531Z,99151.15
2023-07-11T08:41:11.818Z,99146.29
2023-07-11T08:43:39.618Z,99144.70
2023-07-11T08:46:13.868Z,99140.16
2023-07-11T08:48:47.218Z,99139.23
2023-07-11T08:51:20.696Z,99133.93
2023-07-11T08:53:57.456Z,99134.08
2023-07-11T08:56:43.299Z,99130.73
2023-07-11T08:59:16.152Z,99130.33
2023-07-11T09:01:54.131Z,99127.67
2023-07-11T09:04:23.899Z,99128.05
2023-07-11T09:06:55.707Z,99125.20
2023-07-11T09:09:23.950Z,99125.10
2023-07-11T09:12:13.486Z,99132.19
2023-07-11T09:14:47.092Z,99128.60
2023-07-11T09:17:36.550Z,99133.61
2023-07-11T09:20:29.999Z,99137.35
2023-07-11T09:23:33.276Z,99135.96
2023-07-11T09:26:10.000Z,99135.68
2023-07-11T09:28:39.160Z,99131.21
2023-07-11T09:31:10.891Z,99134.35
2023-07-11T09:33:41.041Z,99135.04
2023-07-11T09:36:31.497Z,99135.68
2023-07-11T09:39:13.876Z,99134.32
2023-07-11T09:42:06.175Z,99129.55
2023-07-11T09:44:34.531Z,99133.20
2023-07-11T09:47:18.886Z,99133.04
2023-07-11T09:49:48.217Z,99133.22
2023-07-11T09:52:27.797Z,99128.37
2023-07-11T09:55:07.841Z,99129.17
2023-07-11T09:57:45.693Z,99131.58
2023-07-11T10:02:48.781Z,99133.02
2023-07-11T10:05:18.471Z,99128.84
2023-07-11T10:07:48.770Z,99126.92
2023-07-11T10:10:16.958Z,99126.58
2023-07-11T10:12:46.501Z,99133.85
2023-07-11T10:15:16.329Z,99131.79
2023-07-11T10:17:45.252Z,99131.16
2023-07-11T10:20:19.722Z,99132.31
2023-07-11T10:22:51.439Z,99132.91
2023-07-11T10:25:23.018Z,99140.36
2023-07-11T10:27:57.913Z,99142.48
2023-07-11T10:30:28.754Z,99144.23
2023-07-11T10:33:23.368Z,99143.77
2023-07-11T10:36:04.560Z,99139.10
2023-07-11T10:39:00.127Z,99135.94
2023-07-11T10:41:42.104Z,99128.86
2023-07-11T10:44:23.364Z,99125.14
2023-07-11T10:46:53.372Z,99117.08
2023-07-11T10:49:30.348Z,99117.60
2023-07-11T10:52:20.961Z,99117.84
2023-07-11T10:55:30.045Z,99117.60
2023-07-11T10:57:58.958Z,99113.12
2023-07-11T11:01:06.980Z,99117.40
2023-07-11T11:03:45.040Z,99117.02
2023-07-11T11:06:33.032Z,99108.52
2023-07-11T11:09:16.972Z,99104.98
2023-07-11T11:12:30.499Z,99099.23
2023-07-11T11:15:24.452Z,99104.20
2023-07-11T11:18:18.524Z,99105.33
2023-07-11T11:21:13.280Z,99106.19
2023-07-11T11:24:00.574Z,99099.64
2023-07-11T11:26:33.972Z,99096.69
2023-07-11T11:29:24.503Z,99092.77
2023-07-11T11:32:00.754Z,99089.09
2023-07-11T11:35:15.341Z,99090.70
2023-07-11T11:38:18.507Z,99083.30
2023-07-11T11:40:50.739Z,99077.30
2023-07-11T11:43:29.645Z,99081.33
2023-07-11T11:46:29.004Z,99081.98
2023-07-11T11:51:24.916Z,99076.76
2023-07-11T11:54:14.779Z,99072.02
2023-07-11T11:56:48.059Z,99071.60
2023-07-11T11:59:19.291Z,99075.43
2023-07-11T12:02:01.537Z,99071.66
2023-07-11T12:04:35.956Z,99068.52
2023-07-11T12:07:07.679Z,99070.13
2023-07-11T12:09:49.419Z,99069.14
2023-07-11T12:12:20.590Z,99063.73
2023-07-11T12:14:51.404Z,99063.89
2023-07-11T12:17:34.732Z,99066.13
2023-07-11T12:20:06.487Z,99064.31
2023-07-11T12:22:40.354Z,99064.38
2023-07-11T12:25:18.848Z,99061.23
2023-07-11T12:28:01.719Z,99061.78
2023-07-11T12:30:39.801Z,99061.66
2023-07-11T12:33:38.965Z,99055.15
2023-07-11T12:36:06.972Z,99054.24
2023-07-11T12:38:56.896Z,99054.02
2023-07-11T12:41:43.333Z,99046.41
2023-07-11T12:44:16.490Z,99046.34
2023-07-11T12:46:46.618Z,99048.11
2023-07-11T12:49:25.651Z,99051.28
2023-07-11T12:52:07.441Z,99055.67
2023-07-11T12:54:35.799Z,99054.28
2023-07-11T12:57:04.208Z,99049.04
2023-07-11T12:59:32.378Z,99046.54
2023-07-11T13:02:05.953Z,99040.67
2023-07-11T13:04:45.978Z,99040.05
2023-07-11T13:07:17.586Z,99038.27
2023-07-11T13:09:50.059Z,99039.14
2023-07-11T13:12:23.816Z,99042.73
2023-07-11T13:14:52.091Z,99042.34
2023-07-11T13:17:26.983Z,99041.91
2023-07-11T13:20:00.103Z,99034.79
2023-07-11T13:22:28.590Z,99037.83
2023-07-11T13:24:58.094Z,99035.88
2023-07-11T13:27:35.347Z,99036.77
2023-07-11T13:30:03.539Z,99037.68
2023-07-11T13:32:31.341Z,99036.98
2023-07-11T13:35:22.549Z,99036.45
2023-07-11T13:37:51.389Z,99040.41
2023-07-11T13:40:39.096Z,99040.44
2023-07-11T13:43:21.477Z,99037.98
2023-07-11T13:45:51.846Z,99039.18
2023-07-11T13:48:27.753Z,99037.27
2023-07-11T13:51:17.607Z,99043.52
2023-07-11T13:53:50.264Z,99040.56
2023-07-11T13:56:18.403Z,99035.52
2023-07-11T13:58:47.469Z,99035.27
2023-07-11T14:01:20.075Z,99031.50
2023-07-11T14:03:48.443Z,99029.54
2023-07-11T14:06:17.507Z,99031.09
2023-07-11T14:08:45.173Z,99028.91
2023-07-11T14:11:15.904Z,99030.95
2023-07-11T14:13:43.698Z,99035.71
2023-07-11T14:16:11.852Z,99029.83
2023-07-11T14:18:39.552Z,99028.49
2023-07-11T14:21:10.808Z,99024.83
2023-07-11T14:23:38.487Z,99021.48
2023-07-11T14:26:06.186Z,99028.02
2023-07-11T14:28:34.059Z,99025.46
2023-07-11T14:31:03.248Z,99018.10
2023-07-11T14:33:34.311Z,99020.61
2023-07-11T14:36:02.310Z,99024.34
2023-07-11T14:38:30.141Z,99022.63
2023-07-11T14:40:58.016Z,99029.00
2023-07-11T14:43:27.422Z,99027.77
2023-07-11T14:45:55.365Z,99024.90
2023-07-11T14:48:27.588Z,99024.63
2023-07-11T14:51:02.323Z,99024.97
2023-07-11T14:53:32.418Z,99020.75
2023-07-11T14:57:14.934Z,99009.38
2023-07-11T14:58:51.248Z,99016.74
2023-07-11T15:01:19.329Z,99014.66
2023-07-11T15:16:29.238Z,99011.98
2023-07-11T15:18:56.993Z,99012.70
2023-07-11T15:21:24.760Z,99010.70
2023-07-11T15:23:52.445Z,99013.34
2023-07-11T15:26:25.624Z,99013.63
2023-07-11T15:28:54.297Z,99012.94
2023-07-11T15:31:22.152Z,99011.41
2023-07-11T15:33:51.471Z,99010.64
2023-07-11T15:36:19.104Z,99011.00
2023-07-11T15:38:47.008Z,99014.27
2023-07-11T15:41:17.340Z,99012.50
2023-07-11T15:43:45.583Z,99009.27
2023-07-11T15:46:21.304Z,99011.83
2023-07-11T15:48:51.728Z,99003.16
2023-07-11T15:51:19.706Z,99003.67
2023-07-11T15:53:47.434Z,99004.48
2023-07-11T15:56:15.735Z,99009.30
2023-07-11T15:58:43.430Z,99011.41
2023-07-11T16:01:11.159Z,99007.16
2023-07-11T16:03:39.164Z,99005.91
2023-07-11T16:06:12.756Z,99008.80
2023-07-11T16:08:40.430Z,99009.98
2023-07-11T16:11:10.762Z,99005.23
2023-07-11T16:13:39.233Z,99004.15
2023-07-11T16:16:15.779Z,99004.17
2023-07-11T16:18:43.717Z,98999.95
2023-07-11T16:21:14.575Z,98999.08
2023-07-11T16:23:42.360Z,98998.02
2023-07-11T16:26:20.162Z,98998.73
2023-07-11T16:28:48.313Z,98999.69
2023-07-11T16:31:16.053Z,98997.39
2023-07-11T16:33:44.062Z,98998.61
2023-07-11T16:36:15.662Z,98994.30
2023-07-11T16:38:43.637Z,98994.52
2023-07-11T16:41:11.451Z,98991.63
2023-07-11T16:43:39.154Z,98989.88
2023-07-11T16:46:09.929Z,98990.75
2023-07-11T16:48:37.762Z,98991.08
2023-07-11T16:51:09.843Z,98990.41
2023-07-11T16:53:37.818Z,98990.23
2023-07-11T16:56:05.781Z,98990.89
2023-07-11T16:58:41.947Z,98988.36
2023-07-11T17:01:15.956Z,98994.36
2023-07-11T17:03:44.229Z,98994.34
2023-07-11T17:06:26.351Z,98994.17
2023-07-11T17:08:55.724Z,98996.45
2023-07-11T17:11:23.670Z,99001.10
2023-07-11T17:13:51.506Z,98999.46
2023-07-11T17:16:22.920Z,98999.38
2023-07-11T17:18:50.770Z,98998.69
2023-07-11T17:21:18.615Z,98995.96
2023-07-11T17:23:46.763Z,98992.76
2023-07-11T17:26:15.750Z,98994.63
2023-07-11T17:28:43.548Z,98996.06
2023-07-11T17:31:15.809Z,98994.45
2023-07-11T17:33:43.834Z,98994.77
2023-07-11T17:36:15.695Z,98989.71
2023-07-11T17:38:45.329Z,98990.77
2023-07-11T17:41:12.995Z,98991.16
2023-07-11T17:43:42.375Z,98990.52
2023-07-11T17:46:41.044Z,98985.54
2023-07-11T17:49:04.717Z,98984.13
2023-07-11T17:51:33.703Z,98983.77
2023-07-11T17:54:01.484Z,98983.15
2023-07-11T17:56:47.657Z,98979.44
2023-07-11T17:59:18.623Z,98979.85
2023-07-11T18:01:49.136Z,98981.73
2023-07-11T18:04:17.154Z,98979.92
2023-07-11T18:06:45.207Z,98981.23
2023-07-11T18:09:12.878Z,98981.85
2023-07-11T18:11:40.540Z,98982.04
2023-07-11T18:14:08.361Z,98982.93
2023-07-11T18:16:36.359Z,98987.69
2023-07-11T18:19:04.330Z,98986.58
2023-07-11T18:21:32.170Z,98986.77
2023-07-11T18:23:59.810Z,98989.15
2023-07-11T18:26:27.768Z,98990.34
2023-07-11T18:28:55.443Z,98990.09
2023-07-11T18:31:23.309Z,98990.36
2023-07-11T18:33:51.738Z,98992.91
2023-07-11T18:36:24.927Z,98993.42
2023-07-11T18:38:53.708Z,98992.45
2023-07-11T18:41:21.548Z,98996.02
2023-07-11T18:43:49.609Z,98994.20
2023-07-11T18:46:18.781Z,98994.80
2023-07-11T18:48:46.912Z,98998.32
2023-07-11T18:51:16.398Z,98995.27
2023-07-11T18:53:44.758Z,98993.88
2023-07-11T18:56:20.005Z,98991.34
2023-07-11T18:58:47.684Z,98993.98
2023-07-11T19:01:15.704Z,98997.00
2023-07-11T19:03:44.117Z,99000.77
2023-07-11T19:06:17.359Z,98995.99
2023-07-11T19:08:48.572Z,98996.77
2023-07-11T19:11:18.139Z,98996.69
2023-07-11T19:13:46.448Z,98997.17
2023-07-11T19:16:19.300Z,98997.16
2023-07-11T19:18:47.217Z,99001.85
2023-07-11T19:21:15.595Z,99002.90
2023-07-11T19:23:43.562Z,98998.77
2023-07-11T19:26:18.923Z,99003.80
2023-07-11T19:28:47.090Z,99009.05
2023-07-11T19:31:16.673Z,99009.44
2023-07-11T19:33:44.641Z,99008.04
2023-07-11T19:36:17.900Z,99003.44
2023-07-11T19:38:46.575Z,99001.44
2023-07-11T19:41:17.011Z,99000.31
2023-07-11T19:43:47.117Z,99003.34
2023-07-11T19:46:17.536Z,99007.14
2023-07-11T19:48:45.868Z,99006.69
2023-07-11T19:51:13.956Z,99008.08
2023-07-11T19:53:42.585Z,99007.09
2023-07-11T19:56:22.298Z,99009.07
2023-07-11T19:58:50.901Z,99009.27
2023-07-11T20:01:19.006Z,99009.66
2023-07-11T20:03:46.984Z,99010.88
2023-07-11T20:06:23.148Z,99012.71
2023-07-11T20:08:52.272Z,99015.38
2023-07-11T20:11:20.186Z,99010.06
2023-07-11T20:13:48.417Z,99005.80
2023-07-11T20:16:24.355Z,99007.71
2023-07-11T20:18:52.994Z,99008.25
2023-07-11T20:21:22.618Z,99009.23
2023-07-11T20:23:52.521Z,99007.16
2023-07-11T20:26:25.328Z,99007.00
2023-07-11T20:28:54.323Z,99004.67
2023-07-11T20:31:23.078Z,99004.08
2023-07-11T20:33:50.972Z,98997.16
2023-07-11T20:36:25.452Z,98993.63
2023-07-11T20:38:55.540Z,98992.92
2023-07-11T20:41:24.234Z,98996.66
2023-07-11T20:43:52.128Z,99004.38
2023-07-11T20:46:22.211Z,99007.25
2023-07-11T20:48:50.842Z,99003.38
2023-07-11T20:51:20.186Z,98998.98
2023-07-11T20:53:48.766Z,99000.98
2023-07-11T20:56:24.308Z,98998.17
2023-07-11T20:58:55.731Z,98999.98
2023-07-11T21:01:24.730Z,98996.21
2023-07-11T21:03:52.680Z,98994.10
2023-07-11T21:06:30.353Z,98992.34
2023-07-11T21:08:58.946Z,98989.52
2023-07-11T21:11:26.891Z,98991.73
2023-07-11T21:13:55.096Z,98985.78
2023-07-11T21:16:26.128Z,98979.72
2023-07-11T21:18:54.130Z,98972.75
2023-07-11T21:21:22.279Z,98969.58
2023-07-11T21:23:50.188Z,98966.77
2023-07-11T21:26:19.948Z,98966.45
2023-07-11T21:28:48.191Z,98963.50
2023-07-11T21:31:18.438Z,98961.23
2023-07-11T21:33:47.796Z,98958.09
2023-07-11T21:36:20.957Z,98956.79
2023-07-11T21:38:50.348Z,98950.49
2023-07-11T21:41:20.737Z,98946.05
2023-07-11T21:43:48.695Z,98947.84
2023-07-11T21:46:16.595Z,98945.61
2023-07-11T21:48:44.350Z,98943.34
2023-07-11T21:51:14.951Z,98940.52
2023-07-11T21:53:42.664Z,98937.28
2023-07-11T21:56:10.552Z,98933.23
2023-07-11T21:58:38.313Z,98929.80
2023-07-11T22:01:06.447Z,98927.36
2023-07-11T22:03:36.125Z,98917.55
2023-07-11T22:06:39.558Z,98913.71
2023-07-11T22:09:07.219Z,98902.67
2023-07-11T22:11:34.993Z,98900.46
2023-07-11T22:14:03.574Z,98896.45
2023-07-11T22:16:31.410Z,98890.65
2023-07-11T22:18:59.643Z,98887.44
2023-07-11T22:21:27.965Z,98883.45
2023-07-11T22:23:57.852Z,98877.16
2023-07-11T22:26:30.894Z,98872.62
2023-07-11T22:29:02.676Z,98867.19
2023-07-11T22:31:31.063Z,98866.95
2023-07-11T22:33:58.934Z,98861.42
2023-07-11T22:36:26.709Z,98861.54
2023-07-11T22:38:54.363Z,98860.50
2023-07-11T22:41:22.150Z,98854.27
2023-07-11T22:43:49.846Z,98851.84
2023-07-11T22:46:20.183Z,98856.17
2023-07-11T22:48:49.367Z,98854.39
2023-07-11T22:51:18.460Z,98849.14
2023-07-11T22:53:47.833Z,98842.66
2023-07-11T22:56:21.405Z,98840.42
2023-07-11T22:58:50.135Z,98836.48
2023-07-11T23:01:19.562Z,98831.02
2023-07-11T23:03:47.687Z,98827.33
2023-07-11T23:06:21.215Z,98826.95
2023-07-11T23:08:49.588Z,98827.55
2023-07-11T23:11:18.150Z,98825.29
2023-07-11T23:13:46.681Z,98832.33
2023-07-11T23:16:20.128Z,98834.88
2023-07-11T23:18:48.037Z,98835.27
2023-07-11T23:21:15.932Z,98839.67
2023-07-11T23:23:43.688Z,98844.59
2023-07-11T23:26:13.989Z,98839.94
2023-07-11T23:28:42.098Z,98835.93
2023-07-11T23:31:10.974Z,98834.35
2023-07-11T23:33:39.631Z,98842.03
2023-07-11T23:36:13.570Z,98851.98
2023-07-11T23:38:41.323Z,98860.48
2023-07-11T23:41:15.605Z,98868.70
2023-07-11T23:43:44.870Z,98881.42
2023-07-11T23:46:21.692Z,98890.25
2023-07-11T23:48:50.932Z,98901.05
2023-07-11T23:51:20.365Z,98907.98
2023-07-11T23:53:50.224Z,98908.96
2023-07-11T23:56:26.839Z,98905.66
2023-07-11T23:58:55.823Z,98888.39
